Time;durP1;ratioP1;P1;durP2;ratioP2;P2;SDS_P1;SDS_P2;PMS_P1;PMS_P2;Temp;Humidity;BMP_temperature;BMP_pressure;BME280_temperature;BME280_humidity;BME280_pressure;Samples;Min_cycle;Max_cycle;Signal;HPM_P1;HPM_P2
2022/03/03 00:02:04;;;;;;;69.25;36.38;;;;;;;;;;5115044;28;20046;-72
2022/03/03 00:04:31;;;;;;;68.75;35.15;;;;;;;;;;5097031;28;20046;-72
2022/03/03 00:06:57;;;;;;;67.57;33.55;;;;;;;;;;5114685;28;20075;-69
2022/03/03 00:09:23;;;;;;;72.47;34.95;;;;;;;;;;5115209;28;20024;-71
2022/03/03 00:11:50;;;;;;;69.45;36.33;;;;;;;;;;5096585;28;20024;-69
2022/03/03 00:14:16;;;;;;;68.43;37.15;;;;;;;;;;5096268;28;20053;-70
2022/03/03 00:16:42;;;;;;;64.82;34.80;;;;;;;;;;5114766;28;20088;-70
2022/03/03 00:19:08;;;;;;;73.40;37.03;;;;;;;;;;5114348;28;20357;-69
2022/03/03 00:21:35;;;;;;;67.57;34.83;;;;;;;;;;5114367;28;20076;-71
2022/03/03 00:24:01;;;;;;;68.85;33.58;;;;;;;;;;5114938;28;20060;-70
2022/03/03 00:26:27;;;;;;;63.35;34.08;;;;;;;;;;5096265;28;20039;-70
2022/03/03 00:28:53;;;;;;;62.28;32.13;;;;;;;;;;5114585;28;20031;-71
2022/03/03 00:31:19;;;;;;;61.40;31.55;;;;;;;;;;5096208;28;20020;-72
2022/03/03 00:33:46;;;;;;;60.42;31.05;;;;;;;;;;5114728;28;20456;-72
2022/03/03 00:36:12;;;;;;;66.32;32.15;;;;;;;;;;5096088;28;20019;-71
2022/03/03 00:38:38;;;;;;;64.15;30.88;;;;;;;;;;5096424;28;20412;-71
2022/03/03 00:41:04;;;;;;;56.35;27.92;;;;;;;;;;5095881;28;20456;-71
2022/03/03 00:43:31;;;;;;;53.63;28.92;;;;;;;;;;5114297;28;20030;-70
2022/03/03 00:45:57;;;;;;;53.75;28.63;;;;;;;;;;5114514;28;20023;-70
2022/03/03 00:48:23;;;;;;;54.47;27.92;;;;;;;;;;5114250;28;20369;-71
2022/03/03 00:50:50;;;;;;;51.05;27.80;;;;;;;;;;5114149;28;20039;-71
2022/03/03 00:53:16;;;;;;;57.65;29.27;;;;;;;;;;5114133;28;20028;-70
2022/03/03 00:55:42;;;;;;;51.05;26.85;;;;;;;;;;5095706;28;20114;-71
2022/03/03 00:58:09;;;;;;;54.05;27.13;;;;;;;;;;5095729;28;20449;-73
2022/03/03 01:00:36;;;;;;;56.58;28.48;;;;;;;;;;5113972;28;20115;-71
2022/03/03 01:03:02;;;;;;;56.78;28.48;;;;;;;;;;5114010;28;20030;-71
2022/03/03 01:05:28;;;;;;;60.05;29.88;;;;;;;;;;5113878;28;20032;-71
2022/03/03 01:07:55;;;;;;;56.22;27.90;;;;;;;;;;5095522;28;20511;-72
2022/03/03 01:10:21;;;;;;;55.90;27.85;;;;;;;;;;5095482;28;20020;-70
2022/03/03 01:12:47;;;;;;;55.55;28.35;;;;;;;;;;5113836;28;20070;-69
2022/03/03 01:15:13;;;;;;;53.90;27.38;;;;;;;;;;5113287;28;20568;-72
2022/03/03 01:17:40;;;;;;;57.28;29.05;;;;;;;;;;5113714;28;20028;-70
2022/03/03 01:20:07;;;;;;;58.08;27.80;;;;;;;;;;5095406;28;20027;-69
2022/03/03 01:22:35;;;;;;;56.75;27.60;;;;;;;;;;5095544;28;20082;-70
2022/03/03 01:25:01;;;;;;;53.10;27.55;;;;;;;;;;5095320;28;20026;-70
2022/03/03 01:27:27;;;;;;;56.00;27.45;;;;;;;;;;5113623;28;20019;-70
2022/03/03 01:29:54;;;;;;;51.22;27.45;;;;;;;;;;5113255;28;20490;-71
2022/03/03 01:32:20;;;;;;;53.45;28.80;;;;;;;;;;5112839;28;20035;-71
2022/03/03 01:34:46;;;;;;;54.63;27.45;;;;;;;;;;5095284;28;20036;-71
2022/03/03 01:37:13;;;;;;;53.33;27.50;;;;;;;;;;5113514;28;20118;-73
2022/03/03 01:39:39;;;;;;;53.20;28.38;;;;;;;;;;5095176;28;20019;-72
2022/03/03 01:42:05;;;;;;;50.53;27.67;;;;;;;;;;5113431;28;20040;-71
2022/03/03 01:44:31;;;;;;;51.33;26.30;;;;;;;;;;5095155;28;20027;-70
2022/03/03 01:47:00;;;;;;;63.13;28.02;;;;;;;;;;5113407;28;20020;-69
2022/03/03 01:49:27;;;;;;;47.00;25.80;;;;;;;;;;5113435;28;20028;-69
2022/03/03 01:51:53;;;;;;;49.85;26.50;;;;;;;;;;5113366;28;20460;-69
2022/03/03 01:54:19;;;;;;;51.67;27.83;;;;;;;;;;5113332;28;20020;-71
2022/03/03 01:56:47;;;;;;;52.08;26.52;;;;;;;;;;5095068;28;20394;-70
2022/03/03 01:59:14;;;;;;;57.92;28.33;;;;;;;;;;5113014;28;20383;-69
2022/03/03 02:01:40;;;;;;;57.30;29.27;;;;;;;;;;5113329;28;20055;-70
2022/03/03 02:04:07;;;;;;;54.10;29.05;;;;;;;;;;5113266;28;20064;-70
2022/03/03 02:06:34;;;;;;;57.78;29.80;;;;;;;;;;5113216;28;20058;-70
2022/03/03 02:09:00;;;;;;;54.78;29.55;;;;;;;;;;5113233;28;20078;-67
2022/03/03 02:11:27;;;;;;;58.78;29.17;;;;;;;;;;5112878;28;20447;-70
2022/03/03 02:13:53;;;;;;;54.67;28.63;;;;;;;;;;5113034;28;20035;-69
2022/03/03 02:16:19;;;;;;;56.13;29.70;;;;;;;;;;5113339;28;20059;-69
2022/03/03 02:18:45;;;;;;;59.15;31.00;;;;;;;;;;5113161;28;20028;-70
2022/03/03 02:21:16;;;;;;;58.55;29.83;;;;;;;;;;5112979;28;20118;-69
2022/03/03 02:23:42;;;;;;;61.78;30.10;;;;;;;;;;5112849;28;20533;-68
2022/03/03 02:26:21;;;;;;;57.30;29.17;;;;;;;;;;5112764;28;20490;-69
2022/03/03 02:28:48;;;;;;;59.13;29.38;;;;;;;;;;5112668;28;20434;-69
2022/03/03 02:31:14;;;;;;;48.65;27.73;;;;;;;;;;5112997;28;20137;-72
2022/03/03 02:33:40;;;;;;;54.60;26.65;;;;;;;;;;5094423;28;20028;-72
2022/03/03 02:36:23;;;;;;;54.58;26.88;;;;;;;;;;5094641;28;20479;-72
2022/03/03 02:38:50;;;;;;;47.53;26.75;;;;;;;;;;5094539;28;20111;-71
2022/03/03 02:41:16;;;;;;;51.35;26.40;;;;;;;;;;5113063;28;20052;-71
2022/03/03 02:43:42;;;;;;;57.13;26.33;;;;;;;;;;5096391;28;20023;-70
2022/03/03 02:46:09;;;;;;;52.47;27.17;;;;;;;;;;5098224;28;20028;-71
2022/03/03 02:48:36;;;;;;;56.40;26.83;;;;;;;;;;5116522;28;20028;-71
2022/03/03 02:51:02;;;;;;;54.22;27.52;;;;;;;;;;5098479;28;20376;-71
2022/03/03 02:53:28;;;;;;;54.88;28.00;;;;;;;;;;5116479;28;20034;-72
2022/03/03 02:55:54;;;;;;;51.15;27.67;;;;;;;;;;5116407;28;20098;-73
2022/03/03 02:58:21;;;;;;;50.53;25.88;;;;;;;;;;5098042;28;20072;-73
2022/03/03 03:00:47;;;;;;;50.13;26.67;;;;;;;;;;5097887;28;20054;-73
2022/03/03 03:03:14;;;;;;;48.63;26.13;;;;;;;;;;5116305;28;20023;-72
2022/03/03 03:05:41;;;;;;;55.60;26.10;;;;;;;;;;5097902;28;20029;-69
2022/03/03 03:08:07;;;;;;;47.83;25.30;;;;;;;;;;5116151;28;20031;-67
2022/03/03 03:10:33;;;;;;;45.78;24.23;;;;;;;;;;5116093;28;20357;-70
2022/03/03 03:12:59;;;;;;;46.63;25.15;;;;;;;;;;5097822;28;20477;-73
2022/03/03 03:15:26;;;;;;;49.10;25.02;;;;;;;;;;5115938;28;20044;-72
2022/03/03 03:17:52;;;;;;;49.90;24.92;;;;;;;;;;5115995;28;20059;-71
2022/03/03 03:20:18;;;;;;;50.88;25.27;;;;;;;;;;5115968;28;20028;-70
2022/03/03 03:22:44;;;;;;;46.83;25.30;;;;;;;;;;5115877;28;20436;-74
2022/03/03 03:25:12;;;;;;;45.55;24.10;;;;;;;;;;5115844;28;20026;-73
2022/03/03 03:27:39;;;;;;;47.75;23.30;;;;;;;;;;5115794;28;20119;-73
2022/03/03 03:30:06;;;;;;;51.40;25.60;;;;;;;;;;5097446;28;20035;-69
2022/03/03 03:32:32;;;;;;;48.15;23.60;;;;;;;;;;5115479;28;20460;-69
2022/03/03 03:34:59;;;;;;;47.95;23.50;;;;;;;;;;5115593;28;20474;-72
2022/03/03 03:37:25;;;;;;;55.88;24.83;;;;;;;;;;5097332;28;20030;-72
2022/03/03 03:39:51;;;;;;;51.88;24.17;;;;;;;;;;5115626;28;20105;-72
2022/03/03 03:42:18;;;;;;;50.80;24.35;;;;;;;;;;5097094;28;20039;-72
2022/03/03 03:44:44;;;;;;;48.65;23.75;;;;;;;;;;5097217;28;20027;-72
2022/03/03 03:47:12;;;;;;;50.17;25.52;;;;;;;;;;5115722;28;20118;-72
2022/03/03 03:49:38;;;;;;;49.35;24.88;;;;;;;;;;5115446;28;20024;-72
2022/03/03 03:52:05;;;;;;;48.55;23.88;;;;;;;;;;5115288;28;20033;-72
2022/03/03 03:54:31;;;;;;;45.17;23.58;;;;;;;;;;5096349;28;20662;-74
2022/03/03 03:56:57;;;;;;;40.67;21.95;;;;;;;;;;5096880;28;20038;-73
2022/03/03 03:59:23;;;;;;;43.83;22.88;;;;;;;;;;5097171;28;20408;-73
2022/03/03 04:01:50;;;;;;;47.47;24.45;;;;;;;;;;5115051;28;20042;-72
2022/03/03 04:04:16;;;;;;;47.75;23.40;;;;;;;;;;5114823;28;20464;-74
2022/03/03 04:06:42;;;;;;;46.47;22.98;;;;;;;;;;5115028;28;20047;-71
2022/03/03 04:09:09;;;;;;;47.13;22.27;;;;;;;;;;5096664;28;20073;-72
2022/03/03 04:11:35;;;;;;;45.10;22.77;;;;;;;;;;5115166;28;20024;-72
2022/03/03 04:14:01;;;;;;;42.75;22.77;;;;;;;;;;5114726;28;20482;-72
2022/03/03 04:16:27;;;;;;;46.05;22.50;;;;;;;;;;5096494;28;20058;-74
2022/03/03 04:18:53;;;;;;;39.83;21.60;;;;;;;;;;5114796;28;20361;-72
2022/03/03 04:21:20;;;;;;;45.33;23.30;;;;;;;;;;5114383;28;20032;-74
2022/03/03 04:23:46;;;;;;;47.22;23.35;;;;;;;;;;5096387;28;20028;-72
2022/03/03 04:26:12;;;;;;;53.58;23.70;;;;;;;;;;5096370;28;20027;-71
2022/03/03 04:28:38;;;;;;;44.10;22.75;;;;;;;;;;5114354;28;20196;-71
2022/03/03 04:31:05;;;;;;;49.28;23.83;;;;;;;;;;5114591;28;20103;-73
2022/03/03 04:33:31;;;;;;;47.63;23.02;;;;;;;;;;5114577;28;20457;-71
2022/03/03 04:35:58;;;;;;;51.92;23.48;;;;;;;;;;5096093;28;20020;-71
2022/03/03 04:38:25;;;;;;;54.72;24.00;;;;;;;;;;5114493;28;20031;-72
2022/03/03 04:40:51;;;;;;;47.45;23.63;;;;;;;;;;5113971;28;20429;-72
2022/03/03 04:43:17;;;;;;;45.90;23.95;;;;;;;;;;5095758;28;20024;-72
2022/03/03 04:45:44;;;;;;;52.03;25.00;;;;;;;;;;5114259;28;20110;-72
2022/03/03 04:48:10;;;;;;;45.65;25.13;;;;;;;;;;5095868;28;20032;-71
2022/03/03 04:50:37;;;;;;;54.72;25.90;;;;;;;;;;5113968;28;20028;-70
2022/03/03 04:53:03;;;;;;;44.88;22.10;;;;;;;;;;5095502;28;20028;-73
2022/03/03 04:55:29;;;;;;;46.42;24.90;;;;;;;;;;5114384;28;20023;-73
2022/03/03 04:57:56;;;;;;;50.42;24.33;;;;;;;;;;5095780;28;20028;-74
2022/03/03 05:00:22;;;;;;;56.25;25.35;;;;;;;;;;5095766;28;20027;-73
2022/03/03 05:02:48;;;;;;;60.85;26.60;;;;;;;;;;5113545;28;20456;-72
2022/03/03 05:05:15;;;;;;;54.38;26.17;;;;;;;;;;5095675;28;20026;-73
2022/03/03 05:07:41;;;;;;;46.70;26.52;;;;;;;;;;5095665;28;20027;-73
2022/03/03 05:10:07;;;;;;;51.42;27.05;;;;;;;;;;5113907;28;20040;-73
2022/03/03 05:12:34;;;;;;;54.28;27.63;;;;;;;;;;5113513;28;20493;-73
2022/03/03 05:15:00;;;;;;;51.85;26.25;;;;;;;;;;5113255;28;20071;-72
2022/03/03 05:17:26;;;;;;;61.65;28.30;;;;;;;;;;5095261;28;20028;-72
2022/03/03 05:19:52;;;;;;;45.50;24.05;;;;;;;;;;5113686;28;20028;-73
2022/03/03 05:22:19;;;;;;;41.85;23.38;;;;;;;;;;5113618;28;20034;-71
2022/03/03 05:24:49;;;;;;;50.30;23.75;;;;;;;;;;5095484;28;20031;-72
2022/03/03 05:27:16;;;;;;;44.42;23.27;;;;;;;;;;5095360;28;20027;-72
2022/03/03 05:29:42;;;;;;;53.17;23.70;;;;;;;;;;5095304;28;20024;-72
2022/03/03 05:32:08;;;;;;;55.95;24.23;;;;;;;;;;5095215;28;20032;-72
2022/03/03 05:34:34;;;;;;;45.60;24.33;;;;;;;;;;5113726;28;20068;-72
2022/03/03 05:37:00;;;;;;;51.75;27.23;;;;;;;;;;5113764;28;20032;-73
2022/03/03 05:39:28;;;;;;;65.00;28.48;;;;;;;;;;5113428;28;20513;-73
2022/03/03 05:41:57;;;;;;;61.30;30.48;;;;;;;;;;5095165;28;20126;-72
2022/03/03 05:44:24;;;;;;;52.88;27.35;;;;;;;;;;5113759;28;20024;-71
2022/03/03 05:46:50;;;;;;;56.38;27.52;;;;;;;;;;5095051;28;20114;-70
2022/03/03 05:49:20;;;;;;;50.28;25.58;;;;;;;;;;5095062;28;20027;-72
2022/03/03 05:51:46;;;;;;;59.22;28.17;;;;;;;;;;5095027;28;20031;-70
2022/03/03 05:54:12;;;;;;;59.05;28.52;;;;;;;;;;5095077;28;20055;-71
2022/03/03 05:56:40;;;;;;;55.00;28.60;;;;;;;;;;5112966;28;20429;-71
2022/03/03 05:59:07;;;;;;;59.60;28.23;;;;;;;;;;5113237;28;20034;-70
2022/03/03 06:01:37;;;;;;;54.60;27.92;;;;;;;;;;5094745;28;20031;-72
2022/03/03 06:04:04;;;;;;;59.55;27.10;;;;;;;;;;5095021;28;20384;-72
2022/03/03 06:06:31;;;;;;;53.85;26.15;;;;;;;;;;5094878;28;20093;-72
2022/03/03 06:09:03;;;;;;;60.15;27.30;;;;;;;;;;5113035;28;20076;-71
2022/03/03 06:11:29;;;;;;;58.97;26.20;;;;;;;;;;5094861;28;20032;-72
2022/03/03 06:14:09;;;;;;;59.15;25.70;;;;;;;;;;5094907;28;20452;-70
2022/03/03 06:16:39;;;;;;;45.83;24.38;;;;;;;;;;5094869;28;20551;-71
2022/03/03 06:19:05;;;;;;;63.28;29.13;;;;;;;;;;5097521;28;20019;-69
2022/03/03 06:21:31;;;;;;;50.17;26.75;;;;;;;;;;5116903;28;20040;-66
2022/03/03 06:23:57;;;;;;;63.88;29.98;;;;;;;;;;5116903;28;20028;-68
2022/03/03 06:26:25;;;;;;;52.58;27.50;;;;;;;;;;5116896;28;20038;-70
2022/03/03 06:28:52;;;;;;;56.42;28.70;;;;;;;;;;5098491;28;20070;-69
2022/03/03 06:31:19;;;;;;;52.45;27.38;;;;;;;;;;5115539;28;20032;-71
2022/03/03 06:33:45;;;;;;;48.35;25.50;;;;;;;;;;5106564;28;20058;-69
2022/03/03 06:36:11;;;;;;;43.50;23.58;;;;;;;;;;5116521;28;20028;-69
2022/03/03 06:38:38;;;;;;;46.58;23.27;;;;;;;;;;5116411;28;20034;-68
2022/03/03 06:41:05;;;;;;;47.78;24.55;;;;;;;;;;5098396;28;20438;-69
2022/03/03 06:43:32;;;;;;;65.63;25.17;;;;;;;;;;5097886;28;20027;-69
2022/03/03 06:45:58;;;;;;;65.25;27.33;;;;;;;;;;5116398;28;20101;-68
2022/03/03 06:48:25;;;;;;;53.40;26.40;;;;;;;;;;5115822;28;20041;-69
2022/03/03 06:50:55;;;;;;;52.53;25.90;;;;;;;;;;5115932;28;20079;-69
2022/03/03 06:53:29;;;;;;;56.17;25.33;;;;;;;;;;5116397;28;20031;-70
2022/03/03 06:56:02;;;;;;;57.88;25.92;;;;;;;;;;5097969;28;20026;-67
2022/03/03 06:58:30;;;;;;;55.90;24.90;;;;;;;;;;5115910;28;20020;-68
2022/03/03 07:00:57;;;;;;;50.65;24.17;;;;;;;;;;5116176;28;20528;-67
2022/03/03 07:03:25;;;;;;;58.30;24.92;;;;;;;;;;5097884;28;20030;-68
2022/03/03 07:05:51;;;;;;;50.63;25.00;;;;;;;;;;5116267;28;20031;-66
2022/03/03 07:08:19;;;;;;;47.60;23.52;;;;;;;;;;5116127;28;20110;-67
2022/03/03 07:10:46;;;;;;;46.45;23.67;;;;;;;;;;5115750;28;20441;-68
2022/03/03 07:13:14;;;;;;;41.60;21.33;;;;;;;;;;5116015;28;20032;-68
2022/03/03 07:15:46;;;;;;;40.47;22.02;;;;;;;;;;5097436;28;20056;-68
2022/03/03 07:18:15;;;;;;;48.33;24.80;;;;;;;;;;5115871;28;20103;-66
2022/03/03 07:20:49;;;;;;;39.65;22.63;;;;;;;;;;5116155;28;20016;-66
2022/03/03 07:23:22;;;;;;;40.67;19.83;;;;;;;;;;5088425;28;20122;-70
2022/03/03 07:25:51;;;;;;;43.95;21.98;;;;;;;;;;5079882;28;20122;-69
2022/03/03 07:28:20;;;;;;;39.38;19.90;;;;;;;;;;5103475;28;20060;-67
2022/03/03 07:30:49;;;;;;;43.55;21.60;;;;;;;;;;5094074;28;20024;-68
2022/03/03 07:33:29;;;;;;;41.40;21.58;;;;;;;;;;5076927;28;20392;-67
2022/03/03 07:35:56;;;;;;;49.03;23.30;;;;;;;;;;5095120;28;20027;-69
2022/03/03 07:38:26;;;;;;;54.05;25.10;;;;;;;;;;5076658;28;20032;-68
2022/03/03 07:40:52;;;;;;;45.10;22.13;;;;;;;;;;5076969;28;20451;-67
2022/03/03 07:43:19;;;;;;;40.63;19.77;;;;;;;;;;5096965;28;20138;-68
2022/03/03 07:45:46;;;;;;;48.30;21.45;;;;;;;;;;5095015;28;20162;-68
2022/03/03 07:48:12;;;;;;;37.63;19.50;;;;;;;;;;5094799;28;20423;-68
2022/03/03 07:50:39;;;;;;;38.20;19.50;;;;;;;;;;5094764;28;20028;-67
2022/03/03 07:53:10;;;;;;;38.75;18.77;;;;;;;;;;5094856;28;20111;-68
2022/03/03 07:55:56;;;;;;;36.50;19.65;;;;;;;;;;5075609;28;20031;-68
2022/03/03 07:58:27;;;;;;;36.17;18.33;;;;;;;;;;5094163;28;20446;-72
2022/03/03 08:00:57;;;;;;;36.25;18.67;;;;;;;;;;5092648;28;20370;-70
2022/03/03 08:03:24;;;;;;;37.85;20.35;;;;;;;;;;5094453;28;20020;-71
2022/03/03 08:05:52;;;;;;;38.92;20.40;;;;;;;;;;5094475;28;20112;-69
2022/03/03 08:08:22;;;;;;;45.05;19.67;;;;;;;;;;5094173;28;20020;-71
2022/03/03 08:10:48;;;;;;;39.47;19.08;;;;;;;;;;5094705;28;20185;-70
2022/03/03 08:13:16;;;;;;;37.58;19.70;;;;;;;;;;5076037;28;20024;-69
2022/03/03 08:15:42;;;;;;;47.70;21.88;;;;;;;;;;5094271;28;20487;-70
2022/03/03 08:18:09;;;;;;;34.92;19.02;;;;;;;;;;5094162;28;20449;-70
2022/03/03 08:20:36;;;;;;;35.80;18.85;;;;;;;;;;5094153;28;20477;-72
2022/03/03 08:23:03;;;;;;;42.17;19.08;;;;;;;;;;5093970;28;20035;-73
2022/03/03 08:25:29;;;;;;;30.67;17.90;;;;;;;;;;5075776;28;20085;-74
2022/03/03 08:27:55;;;;;;;37.30;19.50;;;;;;;;;;5102575;28;20023;-72
2022/03/03 08:30:22;;;;;;;35.17;19.40;;;;;;;;;;5107567;28;20055;-72
2022/03/03 08:33:00;;;;;;;36.28;19.10;;;;;;;;;;5096057;28;20375;-69
2022/03/03 08:35:30;;;;;;;36.47;19.23;;;;;;;;;;5113852;28;20080;-68
2022/03/03 08:38:05;;;;;;;31.90;18.95;;;;;;;;;;5114119;28;20028;-72
2022/03/03 08:40:31;;;;;;;35.25;19.00;;;;;;;;;;5113650;28;20020;-71
2022/03/03 08:43:00;;;;;;;30.73;18.27;;;;;;;;;;5114130;28;20058;-69
2022/03/03 08:45:29;;;;;;;53.00;23.30;;;;;;;;;;5114261;28;20030;-70
2022/03/03 08:48:10;;;;;;;38.83;17.90;;;;;;;;;;5095685;28;20468;-67
2022/03/03 08:50:38;;;;;;;36.13;20.48;;;;;;;;;;5114144;28;20055;-67
2022/03/03 08:53:05;;;;;;;35.42;19.50;;;;;;;;;;5113816;28;20024;-67
2022/03/03 08:55:32;;;;;;;40.85;19.20;;;;;;;;;;5112573;28;20448;-65
2022/03/03 08:57:58;;;;;;;34.65;20.27;;;;;;;;;;5094812;28;20024;-67
2022/03/03 09:00:25;;;;;;;46.10;24.92;;;;;;;;;;5095711;28;20486;-69
2022/03/03 09:02:52;;;;;;;35.88;19.17;;;;;;;;;;5113841;28;20082;-69
2022/03/03 09:05:18;;;;;;;42.45;22.50;;;;;;;;;;5106489;28;20389;-65
2022/03/03 09:07:45;;;;;;;36.97;20.33;;;;;;;;;;5093644;28;20433;-67
2022/03/03 09:10:11;;;;;;;38.28;20.33;;;;;;;;;;5093343;28;20020;-66
2022/03/03 09:12:38;;;;;;;29.20;18.00;;;;;;;;;;5093333;28;20035;-66
2022/03/03 09:15:05;;;;;;;29.17;17.60;;;;;;;;;;5074890;28;20400;-69
2022/03/03 09:17:31;;;;;;;32.60;17.48;;;;;;;;;;5093343;28;20534;-64
2022/03/03 09:20:00;;;;;;;55.78;18.25;;;;;;;;;;5093273;28;20028;-67
2022/03/03 09:22:26;;;;;;;28.40;16.52;;;;;;;;;;5093150;28;20474;-66
2022/03/03 09:24:54;;;;;;;30.15;16.52;;;;;;;;;;5093195;28;20483;-65
2022/03/03 09:27:20;;;;;;;31.55;17.25;;;;;;;;;;5073915;28;20111;-64
2022/03/03 09:29:47;;;;;;;33.25;16.73;;;;;;;;;;5093403;28;20110;-66
2022/03/03 09:32:13;;;;;;;29.15;16.20;;;;;;;;;;5092847;28;20024;-66
2022/03/03 09:34:40;;;;;;;34.95;16.90;;;;;;;;;;5092830;28;20031;-65
2022/03/03 09:37:06;;;;;;;27.80;14.95;;;;;;;;;;5074754;28;20036;-66
2022/03/03 09:39:32;;;;;;;23.17;14.35;;;;;;;;;;5092929;28;20024;-67
2022/03/03 09:41:58;;;;;;;36.20;16.92;;;;;;;;;;5092578;28;20475;-65
2022/03/03 09:44:26;;;;;;;25.92;15.70;;;;;;;;;;5074728;28;20119;-65
2022/03/03 09:46:52;;;;;;;32.97;14.88;;;;;;;;;;5092858;28;20032;-68
2022/03/03 09:49:19;;;;;;;28.58;15.75;;;;;;;;;;5092897;28;20109;-66
2022/03/03 09:51:47;;;;;;;31.90;15.07;;;;;;;;;;5092349;28;20081;-64
2022/03/03 09:54:14;;;;;;;27.95;15.65;;;;;;;;;;5096054;28;20028;-65
2022/03/03 09:56:40;;;;;;;36.03;17.65;;;;;;;;;;5078835;28;20028;-66
2022/03/03 09:59:10;;;;;;;29.75;17.60;;;;;;;;;;5097128;28;20027;-66
2022/03/03 10:01:37;;;;;;;42.78;16.08;;;;;;;;;;5096815;28;20039;-66
2022/03/03 10:04:22;;;;;;;32.70;18.17;;;;;;;;;;5096796;28;20020;-66
2022/03/03 10:06:49;;;;;;;26.55;15.80;;;;;;;;;;5096233;28;20032;-65
2022/03/03 10:09:18;;;;;;;29.02;15.65;;;;;;;;;;5096543;28;20372;-66
2022/03/03 10:11:47;;;;;;;29.30;15.82;;;;;;;;;;5092594;28;20493;-66
2022/03/03 10:14:14;;;;;;;31.20;15.32;;;;;;;;;;5077679;28;20024;-66
2022/03/03 10:16:47;;;;;;;29.27;14.77;;;;;;;;;;5096913;28;20147;-65
2022/03/03 10:19:14;;;;;;;26.42;15.20;;;;;;;;;;5096395;28;20114;-65
2022/03/03 10:21:41;;;;;;;28.90;15.35;;;;;;;;;;5077510;28;20033;-65
2022/03/03 10:24:16;;;;;;;25.30;14.75;;;;;;;;;;5076739;28;20052;-67
2022/03/03 10:26:44;;;;;;;31.10;16.27;;;;;;;;;;5108113;28;20020;-64
2022/03/03 10:29:21;;;;;;;27.02;14.43;;;;;;;;;;5116558;28;20023;-67
2022/03/03 10:31:48;;;;;;;29.05;15.68;;;;;;;;;;5095647;28;20024;-66
2022/03/03 10:34:22;;;;;;;28.10;15.50;;;;;;;;;;5095916;28;20035;-67
2022/03/03 10:36:58;;;;;;;26.52;15.02;;;;;;;;;;5077198;28;20054;-65
2022/03/03 10:39:25;;;;;;;29.08;14.77;;;;;;;;;;5095542;28;20028;-64
2022/03/03 10:41:55;;;;;;;29.23;16.17;;;;;;;;;;5077549;28;20036;-66
2022/03/03 10:44:22;;;;;;;27.13;14.93;;;;;;;;;;5077701;28;20062;-65
2022/03/03 10:47:06;;;;;;;33.10;17.08;;;;;;;;;;5080380;28;20019;-66
2022/03/03 10:49:33;;;;;;;43.20;16.80;;;;;;;;;;5115998;28;20012;-65
2022/03/03 10:52:40;;;;;;;24.77;14.25;;;12.40;56.00;;;;;;5097554;28;20024;-66
2022/03/03 10:55:13;;;;;;;27.83;16.25;;;12.80;56.00;;;;;;5104285;28;20051;-65
2022/03/03 10:58:08;;;;;;;29.67;15.68;;;13.20;54.40;;;;;;5097616;28;20027;-66
2022/03/03 11:00:36;;;;;;;24.45;14.82;;;13.50;54.40;;;;;;5080214;28;20384;-68
2022/03/03 11:03:03;;;;;;;22.60;14.63;;;13.60;52.90;;;;;;5115836;28;20032;-68
2022/03/03 11:05:30;;;;;;;27.13;15.10;;;13.90;54.20;;;;;;5115793;28;20107;-67
2022/03/03 11:07:57;;;;;;;26.67;15.23;;;;;;;;;;5116320;28;20024;-67
2022/03/03 11:10:29;;;;;;;25.55;14.82;;;14.00;52.90;;;;;;5115861;28;20026;-67
2022/03/03 11:12:55;;;;;;;31.55;15.60;;;13.90;53.10;;;;;;5116005;28;20038;-67
2022/03/03 11:15:23;;;;;;;27.02;16.27;;;14.20;52.20;;;;;;5115525;28;20044;-68
2022/03/03 11:17:50;;;;;;;25.05;15.00;;;14.60;53.00;;;;;;5097158;28;20026;-67
2022/03/03 11:20:18;;;;;;;36.50;15.75;;;14.80;51.00;;;;;;5084433;28;20598;-67
2022/03/03 11:22:45;;;;;;;33.13;18.60;;;15.20;50.20;;;;;;5095158;28;20059;-66
2022/03/03 11:25:24;;;;;;;31.13;17.42;;;15.00;48.90;;;;;;5095006;28;20097;-67
2022/03/03 11:28:03;;;;;;;28.27;16.77;;;15.10;49.40;;;;;;5095362;28;20032;-66
2022/03/03 11:30:30;;;;;;;30.15;16.17;;;15.20;49.70;;;;;;5094766;28;20361;-68
2022/03/03 11:33:20;;;;;;;29.58;15.70;;;15.10;49.00;;;;;;5093420;28;20032;-66
2022/03/03 11:35:50;;;;;;;24.17;15.27;;;16.20;48.70;;;;;;5081569;28;20036;-66
2022/03/03 11:38:17;;;;;;;32.55;15.07;;;16.10;45.80;;;;;;5094984;28;20024;-67
2022/03/03 11:41:04;;;;;;;23.00;14.60;;;16.00;46.80;;;;;;5094961;28;20024;-67
2022/03/03 11:43:48;;;;;;;26.63;15.13;;;16.70;45.90;;;;;;5094741;28;20036;-67
2022/03/03 11:46:14;;;;;;;23.25;14.63;;;;;;;;;;5076827;28;20028;-68
2022/03/03 11:48:40;;;;;;;27.77;17.77;;;;;;;;;;5076747;28;20022;-68
2022/03/03 11:51:33;;;;;;;25.40;15.48;;;16.70;44.60;;;;;;5076731;28;20030;-68
2022/03/03 11:54:12;;;;;;;24.42;14.52;;;;;;;;;;5094729;28;20024;-68
2022/03/03 11:56:57;;;;;;;23.65;13.68;;;;;;;;;;5094599;28;20024;-68
2022/03/03 11:59:33;;;;;;;22.73;13.30;;;18.10;44.20;;;;;;5094946;28;20165;-67
2022/03/03 12:02:01;;;;;;;23.65;14.90;;;17.40;42.00;;;;;;5076488;28;20032;-67
2022/03/03 12:04:27;;;;;;;23.27;14.18;;;17.30;46.70;;;;;;5076228;28;20032;-69
2022/03/03 12:06:55;;;;;;;27.13;15.60;;;;;;;;;;5094628;28;20028;-67
2022/03/03 12:09:29;;;;;;;19.95;13.50;;;17.30;44.60;;;;;;5094526;28;20020;-66
2022/03/03 12:12:07;;;;;;;22.48;14.38;;;;;;;;;;5094630;28;20412;-68
2022/03/03 12:14:35;;;;;;;46.28;18.65;;;;;;;;;;5094164;28;20435;-66
2022/03/03 12:17:20;;;;;;;29.25;17.52;;;;;;;;;;5093494;28;20337;-65
2022/03/03 12:19:46;;;;;;;34.38;20.60;;;17.30;45.90;;;;;;5094353;28;20130;-66
2022/03/03 12:22:24;;;;;;;23.75;15.00;;;19.50;41.90;;;;;;5092681;28;20111;-66
2022/03/03 12:24:50;;;;;;;25.50;16.40;;;19.90;41.10;;;;;;5074518;28;20085;-63
2022/03/03 12:27:15;;;;;;;26.52;16.05;;;21.50;40.80;;;;;;5094084;28;20103;-65
2022/03/03 12:29:42;;;;;;;22.73;14.32;;;21.00;38.60;;;;;;5093935;28;20027;-64
2022/03/03 12:32:33;;;;;;;25.30;15.27;;;19.80;39.20;;;;;;5094104;28;20449;-65
2022/03/03 12:35:05;;;;;;;21.98;13.90;;;;;;;;;;5094071;28;20501;-66
2022/03/03 12:37:32;;;;;;;21.30;13.05;;;18.80;39.90;;;;;;5094149;28;20084;-64
2022/03/03 12:40:03;;;;;;;22.38;14.82;;;;;;;;;;5075611;28;20074;-64
2022/03/03 12:42:31;;;;;;;23.98;16.63;;;18.50;41.40;;;;;;5093819;28;20317;-64
2022/03/03 12:48:30;;;;;;;28.20;15.90;;;19.70;39.30;;;;;;5094135;28;20030;-64
2022/03/03 12:51:06;;;;;;;21.17;14.25;;;;;;;;;;5075747;28;20020;-64
2022/03/03 12:53:35;;;;;;;21.08;13.57;;;;;;;;;;5093798;28;20027;-64
2022/03/03 12:56:01;;;;;;;29.23;16.48;;;19.10;41.00;;;;;;5093610;28;20046;-64
2022/03/03 12:58:31;;;;;;;133.95;19.63;;;19.10;40.70;;;;;;5093698;28;20074;-64
2022/03/03 13:00:57;;;;;;;24.10;13.52;;;18.30;40.60;;;;;;5075320;28;20047;-64
2022/03/03 13:03:26;;;;;;;30.33;16.98;;;18.70;40.60;;;;;;5093693;28;20484;-64
2022/03/03 13:05:57;;;;;;;37.70;22.13;;;;;;;;;;5093535;28;20092;-63
2022/03/03 13:08:34;;;;;;;22.63;12.65;;;19.50;39.60;;;;;;5093631;28;20055;-64
2022/03/03 13:11:05;;;;;;;25.67;14.63;;;19.40;39.20;;;;;;5093410;28;20578;-64
2022/03/03 13:13:43;;;;;;;42.42;25.65;;;19.90;39.00;;;;;;5093283;28;20024;-63
2022/03/03 13:16:17;;;;;;;32.42;19.85;;;20.90;39.20;;;;;;5092880;28;20442;-63
2022/03/03 13:18:43;;;;;;;17.70;11.93;;;22.10;37.10;;;;;;5093274;28;20028;-64
2022/03/03 13:21:11;;;;;;;22.30;13.27;;;21.10;36.90;;;;;;5093195;28;20020;-64
2022/03/03 13:23:49;;;;;;;21.58;12.60;;;21.10;37.10;;;;;;5093235;28;20472;-64
2022/03/03 13:26:21;;;;;;;25.38;13.88;;;20.70;37.30;;;;;;5075124;28;20032;-65
2022/03/03 13:28:47;;;;;;;;;;;;;;;;;;5092758;28;20020;-63
2022/03/03 13:31:15;;;;;;;32.65;13.75;;;21.40;36.80;;;;;;5093089;28;20249;-65
2022/03/03 13:33:51;;;;;;;24.17;12.48;;;17.00;41.70;;;;;;5093240;28;20110;-63
2022/03/03 13:36:21;;;;;;;27.40;15.57;;;14.90;42.70;;;;;;5093186;28;20028;-64
2022/03/03 13:38:52;;;;;;;36.75;18.88;;;13.70;44.40;;;;;;5093069;28;20031;-64
2022/03/03 13:41:33;;;;;;;19.85;12.25;;;12.70;46.50;;;;;;5092979;28;20088;-63
2022/03/03 13:44:17;;;;;;;21.25;12.45;;;12.10;47.10;;;;;;5093120;28;20027;-63
2022/03/03 13:46:59;;;;;;;31.42;16.52;;;12.70;48.70;;;;;;5093107;28;20024;-63
2022/03/03 13:49:25;;;;;;;;;;;12.70;48.20;;;;;;5093456;28;20060;-63
2022/03/03 13:52:07;;;;;;;29.85;15.05;;;12.00;48.40;;;;;;5093008;28;19938;-63
2022/03/03 13:54:42;;;;;;;;;;;11.90;48.30;;;;;;5093436;28;20461;-63
2022/03/03 13:57:08;;;;;;;51.53;16.75;;;12.20;48.50;;;;;;5092672;28;20468;-64
2022/03/03 13:59:54;;;;;;;26.48;15.00;;;12.30;48.90;;;;;;5092915;28;20030;-64
2022/03/03 14:02:20;;;;;;;20.70;13.02;;;;;;;;;;5092602;28;20135;-63
2022/03/03 14:05:06;;;;;;;22.92;13.10;;;12.10;47.50;;;;;;5092834;28;20225;-63
2022/03/03 14:07:35;;;;;;;23.38;13.52;;;12.20;48.10;;;;;;5092598;28;20074;-64
2022/03/03 14:10:04;;;;;;;23.50;13.18;;;12.50;48.00;;;;;;5074858;28;20378;-64